Time;durP1;ratioP1;P1;durP2;ratioP2;P2;SDS_P1;SDS_P2;PMS_P1;PMS_P2;Temp;Humidity;BMP_temperature;BMP_pressure;BME280_temperature;BME280_humidity;BME280_pressure;Samples;Min_cycle;Max_cycle;Signal;HPM_P1;HPM_P2
2021/04/16 00:00:27;;;;;;;19.65;10.57;;;;;;;21.08;22.74;98289.94;5039495;28;20068;-91
2021/04/16 00:02:53;;;;;;;19.73;10.27;;;;;;;21.34;22.45;98288.56;5049053;28;20031;-91
2021/04/16 00:05:19;;;;;;;16.20;8.38;;;;;;;21.47;22.27;98288.88;5051045;28;20033;-90
2021/04/16 00:07:45;;;;;;;13.88;8.20;;;;;;;21.76;21.94;98287.41;5046435;28;20075;-91
2021/04/16 00:10:16;;;;;;;15.73;9.07;;;;;;;21.54;21.85;98284.00;5046366;28;20021;-90
2021/04/16 00:12:42;;;;;;;15.57;8.40;;;;;;;21.24;22.41;98279.06;5048505;28;20048;-90
2021/04/16 00:15:11;;;;;;;13.82;7.88;;;;;;;20.52;23.33;98276.28;5043598;28;20037;-90
2021/04/16 00:17:37;;;;;;;16.60;8.82;;;;;;;20.82;23.25;98276.50;5045186;28;20033;-90
2021/04/16 00:20:06;;;;;;;12.55;7.32;;;;;;;21.14;22.56;98270.78;5046465;28;20044;-90
2021/04/16 00:22:34;;;;;;;17.38;11.02;;;;;;;20.15;23.67;98275.97;5041363;28;20068;-90
2021/04/16 00:25:00;;;;;;;15.50;8.25;;;;;;;21.21;22.61;98260.31;5042101;28;20396;-90
2021/04/16 00:27:26;;;;;;;13.68;8.05;;;;;;;20.46;23.80;98261.16;5038408;28;20497;-90
2021/04/16 00:29:52;;;;;;;14.25;7.65;;;;;;;21.06;22.73;98266.44;5048576;28;20036;-90
2021/04/16 00:32:18;;;;;;;10.25;6.90;;;;;;;20.93;23.08;98265.31;5039103;28;20025;-90
2021/04/16 00:34:44;;;;;;;12.15;7.00;;;;;;;20.57;23.50;98265.50;5063273;28;20131;-90
2021/04/16 00:37:10;;;;;;;11.35;6.68;;;;;;;20.10;24.01;98268.03;5042872;28;20064;-91
2021/04/16 00:39:37;;;;;;;12.25;6.40;;;;;;;20.74;23.30;98261.03;5041854;28;20033;-91
2021/04/16 00:42:03;;;;;;;11.95;6.38;;;;;;;21.78;21.99;98262.63;5042937;28;20030;-91
2021/04/16 00:44:29;;;;;;;8.95;5.40;;;;;;;20.67;22.96;98263.84;5044913;28;20053;-91
2021/04/16 00:47:03;;;;;;;8.48;6.32;;;;;;;20.47;23.48;98259.94;5041711;28;20094;-91
2021/04/16 00:49:37;;;;;;;9.38;5.93;;;;;;;20.62;23.22;98275.44;5047095;28;20021;-91
2021/04/16 00:52:05;;;;;;;7.82;4.63;;;;;;;20.76;23.20;98269.78;5047804;28;20079;-91
2021/04/16 00:54:38;;;;;;;10.30;6.95;;;;;;;19.42;24.52;98267.34;5041418;28;20036;-90
2021/04/16 00:57:07;;;;;;;9.43;5.72;;;;;;;19.85;24.25;98270.88;5046554;28;20094;-90
2021/04/16 00:59:37;;;;;;;9.40;5.40;;;;;;;20.98;22.86;98262.09;5047082;28;20041;-90
2021/04/16 01:02:04;;;;;;;8.15;4.75;;;;;;;21.98;21.61;98272.84;5046049;28;20029;-90
2021/04/16 01:04:32;;;;;;;8.13;4.80;;;;;;;22.63;20.77;98271.72;5045027;28;20029;-90
2021/04/16 01:07:00;;;;;;;9.30;5.10;;;;;;;22.28;21.29;98274.13;5041563;28;20499;-90
2021/04/16 01:09:26;;;;;;;6.95;4.57;;;;;;;22.71;20.52;98280.03;5045381;28;20021;-90
2021/04/16 01:11:53;;;;;;;5.82;4.28;;;;;;;22.72;20.66;98267.59;5038661;28;20025;-90
2021/04/16 01:14:19;;;;;;;8.02;5.07;;;;;;;22.50;20.91;98270.66;5040243;28;20036;-90
2021/04/16 01:16:46;;;;;;;7.28;4.32;;;;;;;22.29;21.09;98268.09;5043070;28;20087;-89
2021/04/16 01:19:43;;;;;;;5.97;4.18;;;;;;;21.87;21.42;98268.56;5036999;28;20686;-89
2021/04/16 01:22:15;;;;;;;7.65;4.45;;;;;;;22.45;20.78;98247.94;5040308;28;20079;-89
2021/04/16 01:24:41;;;;;;;6.57;4.65;;;;;;;21.62;21.85;98266.00;5046260;28;20033;-89
2021/04/16 01:27:12;;;;;;;7.78;4.78;;;;;;;21.55;21.95;98254.06;5039711;28;20139;-89
2021/04/16 01:29:41;;;;;;;8.50;5.50;;;;;;;21.97;21.46;98271.25;5043747;28;20033;-89
2021/04/16 01:32:09;;;;;;;8.80;5.18;;;;;;;21.66;21.67;98266.75;5045185;28;20414;-90
2021/04/16 01:34:36;;;;;;;7.13;5.10;;;;;;;21.78;21.69;98262.63;5045415;28;20064;-90
2021/04/16 01:37:03;;;;;;;5.80;4.63;;;;;;;21.86;21.54;98265.00;5042813;28;20064;-90
2021/04/16 01:39:31;;;;;;;6.10;4.28;;;;;;;22.33;21.07;98266.09;5044671;28;20037;-90
2021/04/16 01:41:58;;;;;;;8.75;5.00;;;;;;;21.81;21.49;98270.19;5044999;28;20520;-90
2021/04/16 01:44:28;;;;;;;8.93;5.82;;;;;;;20.85;22.52;98256.16;5045608;28;20125;-90
2021/04/16 01:46:59;;;;;;;9.60;5.83;;;;;;;20.50;23.04;98259.94;5045624;28;20489;-89
2021/04/16 01:49:29;;;;;;;8.43;5.18;;;;;;;20.36;23.24;98259.22;5051388;28;20078;-90
2021/04/16 01:51:56;;;;;;;11.40;5.72;;;;;;;20.63;22.96;98252.69;5047729;28;20029;-90
2021/04/16 01:54:33;;;;;;;9.80;5.65;;;;;;;20.46;23.16;98252.81;5045302;28;20034;-90
2021/04/16 01:57:09;;;;;;;10.13;5.65;;;;;;;20.48;23.11;98250.41;5050603;28;20073;-90
2021/04/16 01:59:38;;;;;;;8.90;5.38;;;;;;;21.23;22.29;98254.34;5042715;28;20033;-90
2021/04/16 02:02:08;;;;;;;7.55;4.40;;;;;;;21.76;21.65;98253.88;5050108;28;20029;-89
2021/04/16 02:04:34;;;;;;;8.30;5.32;;;;;;;21.79;21.57;98244.66;5049716;28;20483;-89
2021/04/16 02:07:00;;;;;;;8.43;5.38;;;;;;;21.49;21.83;98247.34;5042114;28;20033;-90
2021/04/16 02:09:33;;;;;;;9.25;5.45;;;;;;;21.07;22.31;98243.72;5043213;28;20029;-90
2021/04/16 02:11:59;;;;;;;9.95;6.35;;;;;;;21.50;21.77;98246.94;5041338;28;20086;-89
2021/04/16 02:14:27;;;;;;;14.20;6.60;;;;;;;21.46;21.76;98246.19;5043290;28;20041;-89
2021/04/16 02:16:58;;;;;;;9.52;5.85;;;;;;;20.74;22.36;98235.91;5051083;28;20478;-89
2021/04/16 02:19:24;;;;;;;13.90;7.15;;;;;;;19.88;23.52;98243.00;5046127;28;20122;-89
2021/04/16 02:21:51;;;;;;;12.10;6.15;;;;;;;20.54;23.09;98241.19;5041359;28;20031;-89
2021/04/16 02:24:18;;;;;;;11.40;6.13;;;;;;;20.79;22.51;98237.47;5043307;28;20037;-90
2021/04/16 02:26:44;;;;;;;12.18;5.78;;;;;;;20.68;22.87;98235.53;5049800;28;20091;-89
2021/04/16 02:29:13;;;;;;;8.52;5.47;;;;;;;21.40;21.81;98239.44;5045755;28;20371;-89
2021/04/16 02:31:42;;;;;;;10.15;5.28;;;;;;;22.06;21.01;98239.22;5042398;28;20128;-89
2021/04/16 02:34:09;;;;;;;10.75;6.47;;;;;;;21.39;21.82;98234.28;5038815;28;20452;-89
2021/04/16 02:36:36;;;;;;;11.68;6.53;;;;;;;21.80;21.22;98227.47;5050275;28;20398;-89
2021/04/16 02:39:05;;;;;;;12.40;6.55;;;;;;;21.34;21.68;98227.94;5048031;28;20029;-89
2021/04/16 02:41:31;;;;;;;9.95;5.45;;;;;;;20.87;22.25;98231.44;5047632;28;20368;-89
2021/04/16 02:43:57;;;;;;;9.75;6.00;;;;;;;21.46;21.61;98232.22;5051723;28;20032;-89
2021/04/16 02:46:23;;;;;;;11.70;6.65;;;;;;;20.98;22.19;98237.72;5061853;28;20429;-89
2021/04/16 02:48:49;;;;;;;8.85;6.10;;;;;;;20.61;22.50;98226.41;5046143;28;20033;-89
2021/04/16 02:51:15;;;;;;;10.25;5.47;;;;;;;21.08;21.95;98230.53;5041457;28;20120;-89
2021/04/16 02:53:42;;;;;;;10.18;6.00;;;;;;;20.34;23.07;98231.75;5045972;28;20025;-89
2021/04/16 02:56:08;;;;;;;10.75;5.85;;;;;;;20.69;22.32;98233.56;5051612;28;20049;-89
2021/04/16 02:58:34;;;;;;;8.38;5.07;;;;;;;20.80;22.40;98225.91;5042279;28;20394;-89
2021/04/16 03:01:00;;;;;;;12.55;7.10;;;;;;;19.67;23.53;98233.91;5051210;28;20453;-89
2021/04/16 03:03:26;;;;;;;10.43;5.70;;;;;;;20.60;22.78;98236.81;5046523;28;20034;-89
2021/04/16 03:05:52;;;;;;;10.50;5.97;;;;;;;21.06;21.96;98235.72;5044699;28;20558;-89
2021/04/16 03:08:20;;;;;;;10.85;6.03;;;;;;;20.75;22.22;98234.69;5045763;28;20106;-89
2021/04/16 03:10:49;;;;;;;10.35;6.88;;;;;;;19.88;23.58;98240.22;5043998;28;20087;-89
2021/04/16 03:13:15;;;;;;;12.13;5.82;;;;;;;20.32;23.02;98233.34;5051317;28;20025;-89
2021/04/16 03:15:41;;;;;;;10.32;5.47;;;;;;;20.74;22.42;98227.53;5048663;28;20044;-89
2021/04/16 03:18:08;;;;;;;10.30;5.22;;;;;;;20.18;22.91;98227.78;5047049;28;20052;-89
2021/04/16 03:20:34;;;;;;;9.20;5.38;;;;;;;20.08;23.23;98232.22;5047228;28;20705;-89
2021/04/16 03:23:00;;;;;;;12.07;6.75;;;;;;;19.60;23.91;98231.94;5051001;28;20036;-89
2021/04/16 03:25:26;;;;;;;11.20;5.72;;;;;;;19.76;23.61;98239.88;5050374;28;20076;-90
2021/04/16 03:27:54;;;;;;;11.30;6.63;;;;;;;19.39;24.15;98234.75;5046800;28;20033;-90
2021/04/16 03:30:23;;;;;;;10.23;5.25;;;;;;;20.21;23.28;98229.78;5040822;28;20512;-90
2021/04/16 03:32:50;;;;;;;10.38;5.22;;;;;;;20.25;23.19;98233.38;5042387;28;20021;-90
2021/04/16 03:35:17;;;;;;;9.68;5.40;;;;;;;19.99;23.22;98221.50;5050943;28;20028;-90
2021/04/16 03:37:43;;;;;;;7.28;4.95;;;;;;;20.55;22.66;98228.06;5041903;28;20033;-90
2021/04/16 03:40:12;;;;;;;6.32;4.35;;;;;;;19.99;23.14;98229.84;5039638;28;20087;-90
2021/04/16 03:42:38;;;;;;;8.40;5.63;;;;;;;20.04;23.18;98234.22;5049464;28;20052;-90
2021/04/16 03:45:06;;;;;;;11.35;6.65;;;;;;;18.47;25.06;98231.03;5050185;28;20037;-90
2021/04/16 03:47:32;;;;;;;10.13;5.82;;;;;;;19.19;24.24;98233.50;5048559;28;20068;-91
2021/04/16 03:49:58;;;;;;;7.90;4.68;;;;;;;19.61;23.90;98227.16;5046929;28;20490;-90
2021/04/16 03:52:26;;;;;;;9.05;5.75;;;;;;;18.59;25.03;98228.69;5045474;28;20116;-90
2021/04/16 03:54:53;;;;;;;10.82;4.88;;;;;;;19.08;24.81;98224.38;5048682;28;20039;-90
2021/04/16 03:57:20;;;;;;;7.07;4.30;;;;;;;19.01;24.82;98232.72;5043452;28;20087;-90
2021/04/16 03:59:47;;;;;;;8.25;4.68;;;;;;;19.29;24.33;98235.50;5047978;28;20116;-91
2021/04/16 04:02:14;;;;;;;8.85;4.53;;;;;;;18.70;25.15;98234.25;5046031;28;20498;-90
2021/04/16 04:04:40;;;;;;;7.50;5.18;;;;;;;18.51;25.35;98229.03;5041658;28;20036;-90
2021/04/16 04:07:06;;;;;;;7.55;4.13;;;;;;;20.19;23.29;98229.38;5049855;28;20057;-90
2021/04/16 04:09:34;;;;;;;8.20;5.10;;;;;;;18.76;25.11;98237.44;5047764;28;20116;-90
2021/04/16 04:12:00;;;;;;;8.02;4.50;;;;;;;19.39;24.36;98236.72;5050770;28;20085;-90
2021/04/16 04:14:26;;;;;;;8.73;4.28;;;;;;;20.24;23.27;98232.56;5049529;28;20036;-91
2021/04/16 04:16:58;;;;;;;7.53;3.97;;;;;;;19.05;24.30;98234.31;5052683;28;20025;-91
2021/04/16 04:19:26;;;;;;;6.18;4.40;;;;;;;19.44;24.11;98239.13;5051550;28;20498;-91
2021/04/16 04:21:54;;;;;;;6.35;4.35;;;;;;;19.66;23.64;98235.09;5048736;28;20029;-91
2021/04/16 04:24:22;;;;;;;7.28;4.82;;;;;;;19.60;23.89;98239.50;5043353;28;20494;-91
2021/04/16 04:26:49;;;;;;;6.57;3.90;;;;;;;19.33;24.23;98237.09;5045087;28;20543;-91
2021/04/16 04:29:19;;;;;;;5.40;3.90;;;;;;;19.69;23.88;98240.69;5049035;28;20025;-90
2021/04/16 04:31:48;;;;;;;8.05;5.32;;;;;;;19.69;23.68;98246.25;5049835;28;20032;-90
2021/04/16 04:34:20;;;;;;;6.97;4.15;;;;;;;19.61;23.91;98236.31;5049451;28;20029;-90
2021/04/16 04:36:48;;;;;;;6.93;4.43;;;;;;;19.18;24.46;98246.63;5042185;28;20402;-90
2021/04/16 04:39:15;;;;;;;6.18;4.40;;;;;;;19.50;23.97;98254.22;5046210;28;20572;-90
2021/04/16 04:41:41;;;;;;;4.35;3.25;;;;;;;19.97;23.67;98251.75;5047633;28;20390;-89
2021/04/16 04:44:09;;;;;;;4.75;3.58;;;;;;;19.41;23.96;98245.47;5054398;28;20037;-89
2021/04/16 04:46:36;;;;;;;5.95;3.45;;;;;;;19.84;23.65;98247.00;5056395;28;20033;-89
2021/04/16 04:49:02;;;;;;;6.28;3.92;;;;;;;19.89;23.57;98239.03;5040963;28;20187;-89
2021/04/16 04:51:29;;;;;;;7.55;4.25;;;;;;;19.98;23.42;98239.41;5043662;28;20052;-89
2021/04/16 04:53:55;;;;;;;5.95;4.30;;;;;;;20.09;23.06;98247.75;5065242;28;20490;-89
2021/04/16 04:56:21;;;;;;;6.30;4.05;;;;;;;20.82;22.17;98250.63;5052291;28;20505;-88
2021/04/16 04:58:47;;;;;;;5.88;3.60;;;;;;;20.25;22.80;98242.53;5053867;28;20040;-87
2021/04/16 05:01:13;;;;;;;7.45;4.40;;;;;;;20.64;22.57;98247.91;5051104;28;20033;-88
2021/04/16 05:03:39;;;;;;;6.25;4.35;;;;;;;20.89;22.18;98242.97;5047362;28;20414;-89
2021/04/16 05:06:06;;;;;;;7.97;4.82;;;;;;;20.78;22.29;98247.03;5043432;28;20040;-89
2021/04/16 05:08:32;;;;;;;9.68;5.30;;;;;;;20.42;22.59;98249.25;5042894;28;20041;-90
2021/04/16 05:11:00;;;;;;;9.60;5.72;;;;;;;20.41;22.69;98242.88;5045611;28;20526;-86
2021/04/16 05:13:29;;;;;;;10.27;5.95;;;;;;;21.12;21.70;98248.84;5045134;28;20076;-86
2021/04/16 05:15:55;;;;;;;13.30;8.63;;;;;;;21.15;21.75;98248.03;5052285;28;20432;-87
2021/04/16 05:18:22;;;;;;;12.75;6.82;;;;;;;21.89;20.91;98252.19;5048219;28;20064;-88
2021/04/16 05:20:48;;;;;;;9.55;5.50;;;;;;;21.21;21.63;98249.16;5060266;28;20060;-90
2021/04/16 05:23:14;;;;;;;12.02;6.35;;;;;;;21.06;21.78;98242.09;5050810;28;20185;-91
2021/04/16 05:25:40;;;;;;;9.85;5.88;;;;;;;20.90;22.13;98246.56;5050863;28;20044;-87
2021/04/16 05:28:07;;;;;;;20.13;7.68;;;;;;;21.43;21.55;98263.75;5034594;28;20045;-90
2021/04/16 05:30:33;;;;;;;12.27;6.13;;;;;;;21.64;21.15;98255.19;5047125;28;20482;-92
2021/04/16 05:33:00;;;;;;;15.00;7.88;;;;;;;20.88;22.06;98246.19;5051474;28;20021;-89
2021/04/16 05:35:27;;;;;;;7.57;4.63;;;;;;;20.69;22.26;98253.09;5043728;28;20033;-93
2021/04/16 05:37:57;;;;;;;10.13;5.03;;;;;;;21.12;21.86;98250.84;5052921;28;20044;-93
2021/04/16 05:40:24;;;;;;;12.30;6.55;;;;;;;21.09;21.70;98254.47;5047135;28;20033;-91
2021/04/16 05:42:51;;;;;;;10.68;5.55;;;;;;;21.50;21.42;98260.91;5046388;28;20486;-90
2021/04/16 05:45:17;;;;;;;6.82;4.53;;;;;;;20.02;23.24;98253.34;5046384;28;20021;-91
2021/04/16 05:47:43;;;;;;;9.77;4.82;;;;;;;21.02;21.99;98255.28;5049651;28;20483;-92
2021/04/16 05:50:11;;;;;;;12.40;7.53;;;;;;;20.72;22.37;98246.69;5048339;28;20406;-91
2021/04/16 05:52:37;;;;;;;8.77;4.82;;;;;;;20.65;22.40;98258.66;5044966;28;20103;-92
2021/04/16 05:55:04;;;;;;;8.00;4.75;;;;;;;19.15;24.15;98252.19;5053492;28;20033;-91
2021/04/16 05:57:30;;;;;;;4.82;3.80;;;;;;;19.42;24.23;98249.88;5040344;28;20049;-91
2021/04/16 05:59:56;;;;;;;11.52;6.57;;;;;;;20.12;23.12;98246.16;5052841;28;20432;-91
2021/04/16 06:02:36;;;;;;;8.98;5.53;;;;;;;19.81;23.53;98250.59;5064645;28;20043;-90
2021/04/16 06:05:06;;;;;;;11.27;7.07;;;;;;;21.03;22.26;98250.47;5044084;28;20036;-91
2021/04/16 06:07:32;;;;;;;7.90;5.35;;;;;;;21.47;21.49;98249.78;5051713;28;20478;-91
2021/04/16 06:09:58;;;;;;;11.32;7.13;;;;;;;21.99;20.86;98248.47;5053948;28;20025;-91
2021/04/16 06:12:25;;;;;;;11.35;6.05;;;;;;;21.49;21.57;98238.97;5053557;28;20542;-91
2021/04/16 06:14:52;;;;;;;7.28;4.15;;;;;;;21.92;20.98;98240.16;5053099;28;20028;-91
2021/04/16 06:17:19;;;;;;;7.78;5.05;;;;;;;21.95;20.89;98242.13;5045033;28;20033;-91
2021/04/16 06:19:48;;;;;;;16.00;8.05;;;;;;;22.11;20.63;98242.34;5048384;28;20063;-91
2021/04/16 06:22:17;;;;;;;7.75;5.30;;;;;;;21.23;21.79;98241.19;5044613;28;20116;-90
2021/04/16 06:24:43;;;;;;;6.18;3.97;;;;;;;20.48;22.62;98248.41;5046862;28;20029;-90
2021/04/16 06:27:09;;;;;;;7.82;5.45;;;;;;;21.18;22.06;98247.22;5050402;28;20048;-91
2021/04/16 06:29:36;;;;;;;6.53;4.18;;;;;;;19.90;23.41;98246.22;5053197;28;20029;-91
2021/04/16 06:32:02;;;;;;;6.93;4.97;;;;;;;20.03;23.29;98238.19;5050853;28;20031;-90
2021/04/16 06:34:28;;;;;;;7.63;4.93;;;;;;;20.74;22.77;98241.50;5049943;28;20047;-91
2021/04/16 06:36:54;;;;;;;13.32;6.80;;;;;;;21.64;21.82;98244.00;5052847;28;20554;-91
2021/04/16 06:39:21;;;;;;;8.25;5.32;;;;;;;21.19;21.90;98237.59;5050441;28;20025;-91
2021/04/16 06:41:49;;;;;;;9.43;5.57;;;;;;;20.07;23.48;98238.19;5051694;28;20487;-90
2021/04/16 06:44:28;;;;;;;7.55;5.13;;;;;;;20.35;23.14;98233.31;5053377;28;20033;-90
2021/04/16 06:47:05;;;;;;;13.63;6.78;;;;;;;19.66;23.97;98238.69;5049008;28;20157;-90
2021/04/16 06:49:31;;;;;;;7.43;4.95;;;;;;;19.77;24.14;98247.00;5051046;28;20532;-90
2021/04/16 06:52:25;;;;;;;13.35;7.20;;;;;;;19.60;24.30;98242.28;5051748;28;20061;-90
2021/04/16 06:55:13;;;;;;;7.10;4.72;;;;;;;19.55;24.55;98249.06;5050865;28;20044;-90
2021/04/16 06:57:56;;;;;;;9.32;5.35;;;;;;;18.19;25.98;98239.22;5072382;28;20084;-90
2021/04/16 07:00:49;;;;;;;6.95;4.97;;;;;;;18.58;25.59;98235.41;5051899;28;20171;-90
2021/04/16 07:03:23;;;;;;;6.93;4.30;;;;;;;17.82;27.08;98242.22;5042544;28;20441;-90
2021/04/16 07:05:58;;;;;;;5.65;4.05;;;;;;;19.83;24.36;98242.63;5048678;28;20021;-90
2021/04/16 07:08:37;;;;;;;8.80;5.45;;;;;;;19.29;24.83;98235.50;5043912;28;20037;-90
2021/04/16 07:11:14;;;;;;;7.38;4.63;;;;;;;18.03;26.57;98244.31;5061560;28;20099;-91
2021/04/16 07:13:40;;;;;;;6.28;4.30;;;;;;;19.72;24.15;98239.09;5035385;28;20033;-91
2021/04/16 07:16:08;;;;;;;7.78;5.18;;;;;;;18.27;25.99;98244.44;5038347;28;20029;-91
2021/04/16 07:18:39;;;;;;;6.50;4.95;;;;;;;19.56;24.31;98238.69;5035096;28;20124;-91
2021/04/16 07:21:07;;;;;;;7.18;4.88;;;;;;;18.09;26.22;98237.97;5033298;28;20032;-92
2021/04/16 07:23:43;;;;;;;7.40;4.60;;;;;;;18.37;26.33;98251.19;5031599;28;20104;-91
2021/04/16 07:26:29;;;;;;;5.93;3.83;;;;;;;18.47;26.02;98239.34;5048462;28;20130;-90
2021/04/16 07:28:57;;;;;;;8.38;5.18;;;;;;;18.53;25.98;98243.34;5034008;28;20042;-91
2021/04/16 07:31:51;;;;;;;6.43;4.40;;;;;;;17.60;27.19;98249.63;5038435;28;20121;-91
2021/04/16 07:34:31;;;;;;;4.97;3.67;;;;;;;18.09;26.78;98253.84;5033222;28;20041;-92
2021/04/16 07:37:10;;;;;;;7.17;4.23;;;;;;;18.22;26.47;98246.78;5032764;28;20021;-91
2021/04/16 07:39:43;;;;;;;6.82;4.28;;;;;;;17.96;26.72;98250.63;5042480;28;20151;-91
2021/04/16 07:42:09;;;;;;;5.50;3.90;;;;;;;18.84;25.81;98250.97;5042556;28;20056;-90
2021/04/16 07:44:42;;;;;;;6.03;4.60;;;;;;;18.94;25.58;98249.41;5036829;28;20025;-91
2021/04/16 07:47:16;;;;;;;5.85;3.92;;;;;;;19.09;25.53;98251.03;5043868;28;20076;-91
2021/04/16 07:50:06;;;;;;;5.93;3.72;;;;;;;19.93;24.24;98242.59;5036750;28;20022;-91
2021/04/16 07:52:41;;;;;;;4.22;3.15;;;;;;;18.89;25.33;98244.22;5039943;28;20044;-91
2021/04/16 07:55:24;;;;;;;5.57;3.70;;;;;;;20.23;23.80;98241.34;5039586;28;20108;-91
2021/04/16 07:57:50;;;;;;;5.53;3.83;;;;;;;19.35;24.86;98249.84;5048621;28;20053;-92
2021/04/16 08:00:22;;;;;;;6.75;4.40;;;;;;;19.01;25.39;98244.66;5055958;28;20083;-90
2021/04/16 08:03:03;;;;;;;5.85;4.18;;;;;;;18.25;26.64;98235.66;5054844;28;20029;-91
2021/04/16 08:05:34;;;;;;;6.35;4.38;;;;;;;18.19;26.77;98244.78;5056001;28;20033;-92
2021/04/16 08:08:25;;;;;;;6.10;3.63;;;;;;;19.09;25.46;98251.78;5056182;28;20061;-91
2021/04/16 08:11:06;;;;;;;6.57;4.00;;;;;;;19.90;24.50;98242.63;5055714;28;20028;-91
2021/04/16 08:13:54;;;;;;;6.80;3.70;;;;;;;19.60;25.07;98253.44;5054132;28;20033;-91
2021/04/16 08:16:25;;;;;;;5.32;4.07;;;;;;;20.21;23.85;98252.09;5052795;28;20044;-91
2021/04/16 08:18:57;;;;;;;5.95;3.90;;;;;;;19.62;24.75;98239.88;5055126;28;20107;-91
2021/04/16 08:21:26;;;;;;;6.97;4.13;;;;;;;17.48;27.45;98254.66;5039720;28;20032;-91
2021/04/16 08:24:11;;;;;;;5.30;3.55;;;;;;;19.13;25.83;98257.38;5041233;28;20065;-92
2021/04/16 08:26:41;;;;;;;5.70;3.75;;;;;;;19.69;24.75;98240.69;5034685;28;20037;-91
2021/04/16 08:29:23;;;;;;;3.92;3.00;;;;;;;18.97;25.60;98254.19;5047365;28;20037;-91
2021/04/16 08:32:26;;;;;;;6.53;3.90;;;;;;;18.69;25.69;98252.16;5043242;28;20479;-91
2021/04/16 08:35:20;;;;;;;5.82;3.03;;;;;;;20.54;23.64;98254.34;5021833;28;20466;-91
2021/04/16 08:38:01;;;;;;;5.05;3.40;;;;;;;20.42;23.79;98258.38;5045480;28;20052;-91
2021/04/16 08:40:53;;;;;;;6.70;4.25;;;;;;;19.90;24.23;98271.28;5052666;28;20078;-92
2021/04/16 08:43:36;;;;;;;4.82;3.13;;;;;;;18.27;26.77;98265.88;5054820;28;20063;-92
2021/04/16 08:46:18;;;;;;;4.32;3.35;;;;;;;19.89;24.75;98269.69;5037979;28;20478;-92
2021/04/16 08:48:51;;;;;;;5.13;3.78;;;;;;;19.24;25.09;98270.09;5042927;28;20036;-91
2021/04/16 08:51:17;;;;;;;5.47;3.78;;;;;;;19.39;24.83;98268.16;5052473;28;20031;-92
2021/04/16 08:53:44;;;;;;;5.75;4.18;;;;;;;18.31;26.75;98259.13;5054554;28;20025;-92
2021/04/16 08:56:29;;;;;;;4.65;3.00;;;;;;;19.74;24.90;98265.31;5055131;28;20045;-91
2021/04/16 08:58:55;;;;;;;5.20;3.65;;;;;;;19.49;25.20;98264.56;5053956;28;20056;-91
2021/04/16 09:01:29;;;;;;;4.78;3.80;;;;;;;19.16;25.20;98267.72;5039152;28;20029;-92
2021/04/16 09:04:11;;;;;;;5.97;3.10;;;;;;;19.57;24.74;98257.00;5052464;28;20025;-91
2021/04/16 09:06:37;;;;;;;6.72;4.43;;;;;;;18.15;26.88;98272.56;5044698;28;20033;-92
2021/04/16 09:09:07;;;;;;;3.70;3.03;;;;;;;18.67;26.25;98271.19;5053933;28;20048;-92
2021/04/16 09:11:45;;;;;;;5.25;3.55;;;;;;;19.23;25.70;98271.28;5041780;28;20090;-92
2021/04/16 09:14:34;;;;;;;5.90;4.22;;;;;;;17.99;27.15;98274.88;5035131;28;20025;-92
2021/04/16 09:17:05;;;;;;;4.78;3.38;;;;;;;18.52;26.60;98272.34;5037658;28;20103;-91
2021/04/16 09:19:31;;;;;;;5.40;3.88;;;;;;;19.85;24.85;98282.03;5035478;28;20036;-91
2021/04/16 09:22:22;;;;;;;7.68;4.63;;;;;;;18.91;25.78;98278.81;5035058;28;20030;-88
2021/04/16 09:24:56;;;;;;;5.60;3.42;;;;;;;19.47;25.15;98280.88;5037970;28;20033;-88
2021/04/16 09:27:25;;;;;;;5.63;3.60;;;;;;;20.28;24.29;98272.38;5039267;28;20041;-89
2021/04/16 09:29:54;;;;;;;6.60;4.57;;;;;;;18.73;26.16;98274.38;5037696;28;20128;-89
2021/04/16 09:32:34;;;;;;;5.35;4.38;;;;;;;18.38;26.75;98281.41;5035038;28;20025;-88
2021/04/16 09:35:31;;;;;;;9.82;6.05;;;;;;;18.20;27.18;98276.94;5035582;28;20064;-88
2021/04/16 09:38:31;;;;;;;6.65;4.93;;;;;;;20.26;24.57;98276.78;5038523;28;20042;-89
2021/04/16 09:41:08;;;;;;;7.07;4.60;;;;;;;19.75;24.74;98275.28;5041765;28;20037;-88
2021/04/16 09:43:36;;;;;;;7.13;4.35;;;;;;;19.13;25.68;98285.22;5051584;28;20055;-89
2021/04/16 09:46:22;;;;;;;6.93;4.40;;;;;;;18.28;26.79;98284.13;5047993;28;20033;-89
2021/04/16 09:48:50;;;;;;;7.05;4.30;;;;;;;18.88;26.12;98273.25;5033929;28;20045;-88
2021/04/16 09:51:18;;;;;;;6.65;4.35;;;;;;;19.03;25.85;98284.00;5049620;28;20095;-89
2021/04/16 09:54:07;;;;;;;8.88;5.22;;;;;;;19.35;25.44;98270.09;5044275;28;20037;-88
2021/04/16 09:56:38;;;;;;;8.95;5.50;;;;;;;18.76;26.28;98285.53;5041526;28;20041;-88
2021/04/16 09:59:08;;;;;;;6.78;5.13;;;;;;;19.04;25.97;98282.03;5040485;28;20083;-89
2021/04/16 10:01:54;;;;;;;8.43;5.10;;;;;;;18.38;26.68;98275.84;5044995;28;20057;-89
2021/04/16 10:04:49;;;;;;;6.03;3.80;;;;;;;19.57;25.61;98276.50;5047690;28;20033;-89
2021/04/16 10:07:19;;;;;;;6.32;3.67;;;;;;;20.44;24.51;98269.16;5064246;28;20025;-87
2021/04/16 10:09:45;;;;;;;5.93;4.57;;;;;;;19.92;24.91;98271.69;5041209;28;20036;-87
2021/04/16 10:12:30;;;;;;;6.28;4.18;;;;;;;19.15;26.15;98266.91;5053253;28;20029;-88
2021/04/16 10:14:57;;;;;;;10.43;5.40;;;;;;;18.44;27.08;98271.47;5053956;28;20021;-88
2021/04/16 10:17:29;;;;;;;5.82;4.35;;;;;;;18.32;27.32;98274.59;5037203;28;20116;-89
2021/04/16 10:20:03;;;;;;;7.78;4.68;;;;;;;19.89;25.40;98263.31;5038896;28;20060;-88
2021/04/16 10:22:33;;;;;;;7.28;3.97;;;;;;;20.04;25.13;98267.66;5053697;28;20055;-87
2021/04/16 10:28:57;;;;;;;7.45;5.10;;;;;;;17.86;28.17;98281.91;5034247;28;20453;-87
2021/04/16 11:29:34;;;;;;;6.22;3.30;;;;;;;19.35;26.77;98272.88;5055481;28;20500;-89
2021/04/16 12:38:43;;;;;;;4.93;3.95;;;;;;;21.20;24.64;98295.06;5049281;28;20040;-89
2021/04/16 12:41:17;;;;;;;6.45;4.20;;;;;;;19.06;27.10;98305.47;5036355;28;20531;-90
2021/04/16 12:43:45;;;;;;;8.40;4.32;;;;;;;20.35;25.91;98300.25;5042465;28;20047;-92
2021/04/16 12:46:16;;;;;;;8.35;5.20;;;;;;;19.82;26.23;98289.19;5047596;28;20056;-92
2021/04/16 12:48:43;;;;;;;6.32;4.70;;;;;;;19.82;26.33;98296.75;5043931;28;20060;-92
2021/04/16 12:51:10;;;;;;;9.25;5.25;;;;;;;20.14;25.80;98293.91;5046408;28;20045;-91
2021/04/16 12:53:36;;;;;;;6.28;3.90;;;;;;;20.39;25.69;98303.03;5049022;28;20022;-90
2021/04/16 12:56:04;;;;;;;5.50;3.53;;;;;;;20.83;25.22;98292.06;5049842;28;20037;-89
2021/04/16 12:58:33;;;;;;;7.55;4.05;;;;;;;19.98;25.90;98291.56;5050194;28;20501;-92
2021/04/16 13:01:01;;;;;;;7.43;4.68;;;;;;;20.05;25.94;98299.91;5053571;28;20025;-91
2021/04/16 13:03:39;;;;;;;5.80;4.05;;;;;;;20.92;25.06;98295.22;5052794;28;20037;-92
2021/04/16 13:06:14;;;;;;;8.77;4.38;;;;;;;20.62;25.21;98292.16;5051713;28;20094;-90
2021/04/16 13:08:41;;;;;;;6.50;3.95;;;;;;;20.58;25.49;98286.59;5053620;28;20085;-90
2021/04/16 13:11:07;;;;;;;4.47;3.58;;;;;;;21.00;24.98;98290.38;5053038;28;20143;-92
2021/04/16 13:13:33;;;;;;;5.47;3.47;;;;;;;19.88;26.34;98286.81;5049969;28;20037;-90
2021/04/16 13:15:59;;;;;;;6.45;3.55;;;;;;;19.95;26.09;98284.78;5053736;28;20029;-90
2021/04/16 13:18:43;;;;;;;8.07;5.00;;;;;;;18.65;28.14;98292.25;5051464;28;20116;-89
2021/04/16 13:21:23;;;;;;;6.90;5.18;;;;;;;18.14;28.88;98289.59;5050922;28;20039;-90
2021/04/16 13:23:50;;;;;;;5.55;4.05;;;;;;;19.83;26.81;98281.66;5047809;28;20060;-89
2021/04/16 13:26:16;;;;;;;5.60;3.70;;;;;;;20.15;26.39;98287.13;5046414;28;20498;-89
2021/04/16 13:28:42;;;;;;;7.35;3.83;;;;;;;20.23;25.96;98291.53;5046902;28;20048;-88
2021/04/16 13:31:08;;;;;;;6.53;4.18;;;;;;;20.30;26.15;98291.50;5051170;28;20036;-88
2021/04/16 13:33:40;;;;;;;5.72;3.63;;;;;;;19.70;26.98;98289.59;5052777;28;20493;-89
2021/04/16 13:36:08;;;;;;;7.15;3.83;;;;;;;19.89;26.69;98286.41;5052217;28;20029;-89
2021/04/16 13:38:34;;;;;;;7.68;3.95;;;;;;;18.68;28.52;98292.25;5046226;28;20042;-90
2021/04/16 13:41:02;;;;;;;5.03;2.80;;;;;;;19.15;27.88;98302.31;5064585;28;20025;-89
2021/04/16 13:43:29;;;;;;;5.43;3.70;;;;;;;20.09;26.76;98300.72;5036268;28;20087;-89
2021/04/16 13:45:56;;;;;;;7.55;4.75;;;;;;;19.33;27.18;98287.22;5052547;28;20033;-89
2021/04/16 13:48:23;;;;;;;6.43;4.00;;;;;;;19.45;27.17;98297.19;5050653;28;20030;-88
2021/04/16 13:50:49;;;;;;;7.75;4.55;;;;;;;19.56;27.20;98286.84;5048806;28;20039;-87
2021/04/16 13:53:16;;;;;;;6.30;3.30;;;;;;;20.20;26.24;98309.84;5045481;28;20486;-87
2021/04/16 13:55:42;;;;;;;6.20;3.45;;;;;;;20.46;26.09;98301.03;5051028;28;20440;-85